createdAt,value
2018-03-29T00:00:55.693Z,1013.64
2018-03-29T00:01:55.680Z,1013.59
2018-03-29T00:02:55.667Z,1013.55
2018-03-29T00:03:55.662Z,1013.52
2018-03-29T00:04:55.639Z,1013.5
2018-03-29T00:05:55.626Z,1013.47
2018-03-29T00:06:55.612Z,1013.45
2018-03-29T00:07:55.599Z,1013.48
2018-03-29T00:08:55.586Z,1013.41
2018-03-29T00:09:55.589Z,1013.4
2018-03-29T00:10:55.559Z,1013.45
2018-03-29T00:11:55.546Z,1013.45
2018-03-29T00:12:55.532Z,1013.47
2018-03-29T00:13:55.519Z,1013.44
2018-03-29T00:14:55.505Z,1013.44
2018-03-29T00:15:55.492Z,1013.41
2018-03-29T00:16:55.480Z,1013.46
2018-03-29T00:17:55.469Z,1013.43
2018-03-29T00:18:55.455Z,1013.4
2018-03-29T00:19:55.451Z,1013.42
2018-03-29T00:20:55.427Z,1013.39
2018-03-29T00:21:55.412Z,1013.35
2018-03-29T00:22:55.400Z,1013.37
2018-03-29T00:23:55.386Z,1013.3
2018-03-29T00:24:55.373Z,1013.28
2018-03-29T00:25:55.360Z,1013.25
2018-03-29T00:26:55.347Z,1013.27
2018-03-29T00:27:55.334Z,1013.27
2018-03-29T00:28:55.324Z,1013.26
2018-03-29T00:29:55.308Z,1013.28
2018-03-29T00:30:55.294Z,1013.25
2018-03-29T00:31:55.281Z,1013.24
2018-03-29T00:32:55.268Z,1013.2
2018-03-29T00:33:55.256Z,1013.19
2018-03-29T00:34:55.242Z,1013.16
2018-03-29T00:35:55.228Z,1013.2
2018-03-29T00:36:55.217Z,1013.14
2018-03-29T00:37:55.208Z,1013.11
2018-03-29T00:38:55.189Z,1013.12
2018-03-29T00:39:55.178Z,1013.12
2018-03-29T00:40:55.162Z,1013.13
2018-03-29T00:41:55.149Z,1013.01
2018-03-29T00:42:55.136Z,1013
2018-03-29T00:43:55.122Z,1013.03
2018-03-29T00:44:55.109Z,1013.02
2018-03-29T00:45:55.096Z,1012.99
2018-03-29T00:46:55.088Z,1012.99
2018-03-29T00:47:55.069Z,1013
2018-03-29T00:48:55.057Z,1012.98
2018-03-29T00:49:55.043Z,1012.99
2018-03-29T00:50:55.030Z,1012.98
2018-03-29T00:51:55.017Z,1012.95
2018-03-29T00:52:55.009Z,1012.95
2018-03-29T00:53:54.990Z,1012.95
2018-03-29T00:54:54.976Z,1012.88
2018-03-29T00:55:54.964Z,1012.91
2018-03-29T00:56:54.951Z,1012.89
2018-03-29T00:57:54.937Z,1012.86
2018-03-29T00:58:54.923Z,1012.85
2018-03-29T00:59:54.911Z,1012.84
2018-03-29T01:00:54.901Z,1012.8
2018-03-29T01:01:54.884Z,1012.78
2018-03-29T01:02:54.871Z,1012.74
2018-03-29T01:03:54.858Z,1012.71
2018-03-29T01:04:54.850Z,1012.79
2018-03-29T01:05:54.830Z,1012.76
2018-03-29T01:06:54.819Z,1012.85
2018-03-29T01:07:54.818Z,1012.83
2018-03-29T01:08:54.792Z,1012.93
2018-03-29T01:09:54.779Z,1012.94
2018-03-29T01:10:54.766Z,1012.88
2018-03-29T01:11:54.753Z,1012.88
2018-03-29T01:12:54.739Z,1012.82
2018-03-29T01:13:54.725Z,1012.79
2018-03-29T01:14:54.713Z,1012.75
2018-03-29T01:15:54.701Z,1012.83
2018-03-29T01:16:54.688Z,1012.83
2018-03-29T01:17:54.674Z,1012.81
2018-03-29T01:18:54.660Z,1012.81
2018-03-29T01:19:54.646Z,1012.82
2018-03-29T01:20:54.634Z,1012.75
2018-03-29T01:21:54.624Z,1012.72
2018-03-29T01:22:54.607Z,1012.66
2018-03-29T01:23:54.593Z,1012.64
2018-03-29T01:24:54.580Z,1012.6
2018-03-29T01:25:54.572Z,1012.6
2018-03-29T01:26:54.555Z,1012.57
2018-03-29T01:27:54.541Z,1012.57
2018-03-29T01:28:54.528Z,1012.57
2018-03-29T01:29:54.515Z,1012.55
2018-03-29T01:30:54.501Z,1012.53
2018-03-29T01:31:54.488Z,1012.48
2018-03-29T01:32:54.475Z,1012.56
2018-03-29T01:33:54.463Z,1012.49
2018-03-29T01:34:54.455Z,1012.5
2018-03-29T01:35:54.436Z,1012.53
2018-03-29T01:36:54.424Z,1012.51
2018-03-29T01:37:54.410Z,1012.44
2018-03-29T01:38:54.396Z,1012.42
2018-03-29T01:39:54.384Z,1012.43
2018-03-29T01:40:54.370Z,1012.52
2018-03-29T01:41:54.361Z,1012.43
2018-03-29T01:42:54.344Z,1012.41
2018-03-29T01:43:54.331Z,1012.41
2018-03-29T01:44:54.317Z,1012.42
2018-03-29T01:45:54.304Z,1012.46
2018-03-29T01:46:54.292Z,1012.44
2018-03-29T01:47:54.279Z,1012.36
2018-03-29T01:48:54.266Z,1012.4
2018-03-29T01:49:54.254Z,1012.45
2018-03-29T01:50:54.240Z,1012.38
2018-03-29T01:51:54.227Z,1012.43
2018-03-29T01:52:54.215Z,1012.45
2018-03-29T01:53:54.200Z,1012.41
2018-03-29T01:54:54.190Z,1012.42
2018-03-29T01:55:54.175Z,1012.51
2018-03-29T01:56:54.162Z,1012.5
2018-03-29T01:57:54.150Z,1012.47
2018-03-29T01:58:54.136Z,1012.36
2018-03-29T01:59:54.125Z,1012.31
2018-03-29T02:00:54.114Z,1012.2
2018-03-29T02:01:54.098Z,1012.18
2018-03-29T02:02:54.086Z,1012.13
2018-03-29T02:03:54.072Z,1012.14
2018-03-29T02:04:54.060Z,1012.18
2018-03-29T02:05:54.046Z,1012.26
2018-03-29T02:06:54.034Z,1012.24
2018-03-29T02:07:54.020Z,1012.26
2018-03-29T02:08:54.007Z,1012.21
2018-03-29T02:09:53.995Z,1012.21
2018-03-29T02:10:53.982Z,1012.24
2018-03-29T02:11:53.969Z,1012.23
2018-03-29T02:12:53.957Z,1012.12
2018-03-29T02:13:53.944Z,1012.07
2018-03-29T02:14:53.932Z,1012.02
2018-03-29T02:15:53.918Z,1012.03
2018-03-29T02:16:53.906Z,1011.98
2018-03-29T02:17:53.896Z,1011.99
2018-03-29T02:18:53.880Z,1012.02
2018-03-29T02:19:53.867Z,1012.03
2018-03-29T02:20:53.855Z,1012.04
2018-03-29T02:21:53.841Z,1012.05
2018-03-29T02:22:53.831Z,1012.02
2018-03-29T02:23:53.817Z,1012
2018-03-29T02:24:53.809Z,1012
2018-03-29T02:25:53.791Z,1012.01
2018-03-29T02:26:53.778Z,1012.05
2018-03-29T02:27:53.766Z,1012.22
2018-03-29T02:28:53.754Z,1012.14
2018-03-29T02:29:53.740Z,1012.04
2018-03-29T02:30:53.729Z,1011.99
2018-03-29T02:31:53.717Z,1011.97
2018-03-29T02:32:53.708Z,1012
2018-03-29T02:33:53.691Z,1012.01
2018-03-29T02:34:53.680Z,1011.93
2018-03-29T02:35:53.667Z,1012
2018-03-29T02:36:53.654Z,1012.02
2018-03-29T02:37:53.643Z,1012.05
2018-03-29T02:38:53.630Z,1012.07
2018-03-29T02:39:53.618Z,1012.07
2018-03-29T02:40:53.605Z,1012.11
2018-03-29T02:41:53.595Z,1012.08
2018-03-29T02:42:53.580Z,1012.02
2018-03-29T02:43:53.567Z,1012.02
2018-03-29T02:44:53.554Z,1011.97
2018-03-29T02:45:53.543Z,1011.95
2018-03-29T02:46:53.530Z,1012.02
2018-03-29T02:47:53.517Z,1012.02
2018-03-29T02:48:53.505Z,1011.99
2018-03-29T02:49:53.493Z,1012.01
2018-03-29T02:50:53.485Z,1011.93
2018-03-29T02:51:53.477Z,1011.93
2018-03-29T02:52:53.457Z,1011.86
2018-03-29T02:53:53.444Z,1011.82
2018-03-29T02:54:53.432Z,1011.8
2018-03-29T02:55:53.420Z,1011.75
2018-03-29T02:56:53.409Z,1011.73
2018-03-29T02:57:53.396Z,1011.66
2018-03-29T02:58:53.383Z,1011.66
2018-03-29T02:59:53.373Z,1011.66
2018-03-29T03:00:53.360Z,1011.67
2018-03-29T03:01:53.347Z,1011.62
2018-03-29T03:02:53.335Z,1011.62
2018-03-29T03:03:53.323Z,1011.57
2018-03-29T03:04:53.311Z,1011.63
2018-03-29T03:05:53.299Z,1011.64
2018-03-29T03:06:53.288Z,1011.63
2018-03-29T03:07:53.281Z,1011.61
2018-03-29T03:08:53.266Z,1011.62
2018-03-29T03:09:53.255Z,1011.66
2018-03-29T03:10:53.241Z,1011.68
2018-03-29T03:11:53.228Z,1011.72
2018-03-29T03:12:53.216Z,1011.77
2018-03-29T03:13:53.205Z,1011.72
2018-03-29T03:14:53.194Z,1011.72
2018-03-29T03:15:53.181Z,1011.72
2018-03-29T03:16:53.220Z,1011.81
2018-03-29T03:17:53.158Z,1011.76
2018-03-29T03:18:53.147Z,1011.82
2018-03-29T03:19:53.137Z,1011.76
2018-03-29T03:20:53.123Z,1011.81
2018-03-29T03:21:53.111Z,1011.85
2018-03-29T03:22:53.099Z,1011.87
2018-03-29T03:23:53.089Z,1011.93
2018-03-29T03:24:53.076Z,1011.93
2018-03-29T03:25:53.067Z,1011.96
2018-03-29T03:26:53.053Z,1011.96
2018-03-29T03:27:53.151Z,1011.92
2018-03-29T03:28:53.030Z,1011.96
2018-03-29T03:29:53.019Z,1011.88
2018-03-29T03:30:53.007Z,1011.98
2018-03-29T03:31:52.996Z,1011.99
2018-03-29T03:32:52.984Z,1012
2018-03-29T03:33:52.973Z,1011.98
2018-03-29T03:34:52.962Z,1011.95
2018-03-29T03:35:52.951Z,1012.04
2018-03-29T03:36:52.938Z,1012.02
2018-03-29T03:37:52.927Z,1012.1
2018-03-29T03:38:52.915Z,1012.12
2018-03-29T03:39:52.904Z,1012.11
2018-03-29T03:40:52.893Z,1012.12
2018-03-29T03:41:52.881Z,1012.14
2018-03-29T03:42:52.870Z,1012.16
2018-03-29T03:43:52.858Z,1012.09
2018-03-29T03:44:52.846Z,1012.14
2018-03-29T03:45:52.835Z,1012.15
2018-03-29T03:46:52.824Z,1012.21
2018-03-29T03:47:52.813Z,1012.19
2018-03-29T03:48:52.809Z,1012.19
2018-03-29T03:49:52.789Z,1012.19
2018-03-29T03:50:52.781Z,1012.18
2018-03-29T03:51:52.767Z,1012.2
2018-03-29T03:52:52.756Z,1012.2
2018-03-29T03:53:52.743Z,1012.2
2018-03-29T03:54:52.733Z,1012.18
2018-03-29T03:55:52.722Z,1012.22
2018-03-29T03:56:52.710Z,1012.25
2018-03-29T03:57:52.699Z,1012.32
2018-03-29T03:58:52.687Z,1012.44
2018-03-29T03:59:52.676Z,1012.33
2018-03-29T04:00:52.665Z,1012.37
2018-03-29T04:01:52.653Z,1012.37
2018-03-29T04:02:52.651Z,1012.38
2018-03-29T04:03:52.631Z,1012.41
2018-03-29T04:04:52.619Z,1012.43
2018-03-29T04:05:52.608Z,1012.46
2018-03-29T04:06:52.597Z,1012.53
2018-03-29T04:07:52.585Z,1012.54
2018-03-29T04:08:52.575Z,1012.57
2018-03-29T04:09:52.563Z,1012.68
2018-03-29T04:10:52.552Z,1012.59
2018-03-29T04:11:52.542Z,1012.64
2018-03-29T04:12:52.528Z,1012.65
2018-03-29T04:13:52.517Z,1012.65
2018-03-29T04:14:52.507Z,1012.7
2018-03-29T04:15:52.494Z,1012.63
2018-03-29T04:16:52.483Z,1012.74
2018-03-29T04:17:52.475Z,1012.76
2018-03-29T04:18:52.460Z,1012.79
2018-03-29T04:19:52.450Z,1012.77
2018-03-29T04:20:52.438Z,1012.8
2018-03-29T04:21:52.428Z,1012.77
2018-03-29T04:22:52.414Z,1012.8
2018-03-29T04:23:52.405Z,1012.78
2018-03-29T04:24:52.393Z,1012.87
2018-03-29T04:25:52.383Z,1012.88
2018-03-29T04:26:52.369Z,1012.85
2018-03-29T04:27:52.358Z,1012.86
2018-03-29T04:28:52.348Z,1012.95
2018-03-29T04:29:52.335Z,1012.9
2018-03-29T04:30:52.324Z,1012.93
2018-03-29T04:31:52.313Z,1012.99
2018-03-29T04:32:52.302Z,1012.99
2018-03-29T04:33:52.289Z,1012.95
2018-03-29T04:34:52.282Z,1012.97
2018-03-29T04:35:52.268Z,1013.04
2018-03-29T04:36:52.259Z,1013.1
2018-03-29T04:37:52.244Z,1013.13
2018-03-29T04:38:52.233Z,1013.1
2018-03-29T04:39:52.222Z,1013.13
2018-03-29T04:40:52.210Z,1013.16
2018-03-29T04:41:52.199Z,1013.16
2018-03-29T04:42:52.188Z,1013.18
2018-03-29T04:43:52.176Z,1013.16
2018-03-29T04:44:52.164Z,1013.21
2018-03-29T04:45:52.153Z,1013.25
2018-03-29T04:46:52.142Z,1013.32
2018-03-29T04:47:52.131Z,1013.33
2018-03-29T04:48:52.120Z,1013.36
2018-03-29T04:49:52.111Z,1013.41
2018-03-29T04:50:52.096Z,1013.39
2018-03-29T04:51:52.084Z,1013.41
2018-03-29T04:52:52.073Z,1013.56
2018-03-29T04:53:52.065Z,1013.48
2018-03-29T04:54:52.051Z,1013.54
2018-03-29T04:55:52.039Z,1013.53
2018-03-29T04:56:52.028Z,1013.7
2018-03-29T04:57:52.019Z,1013.61
2018-03-29T04:58:52.006Z,1013.66
2018-03-29T04:59:51.993Z,1013.7
2018-03-29T05:00:51.983Z,1013.71
2018-03-29T05:01:51.974Z,1013.73
2018-03-29T05:02:51.960Z,1013.96
2018-03-29T05:03:51.947Z,1013.92
2018-03-29T05:04:51.941Z,1013.86
2018-03-29T05:05:51.926Z,1013.98
2018-03-29T05:06:51.913Z,1014
2018-03-29T05:07:51.901Z,1014.04
2018-03-29T05:08:51.891Z,1014.03
2018-03-29T05:09:51.880Z,1014.03
2018-03-29T05:10:51.878Z,1014.07
2018-03-29T05:11:51.857Z,1014.09
2018-03-29T05:12:51.847Z,1014.16
2018-03-29T05:13:51.833Z,1014.22
2018-03-29T05:14:51.823Z,1014.18
2018-03-29T05:15:51.811Z,1014.23
2018-03-29T05:16:51.800Z,1014.2
2018-03-29T05:17:51.792Z,1014.24
2018-03-29T05:18:51.776Z,1014.31
2018-03-29T05:19:51.766Z,1014.29
2018-03-29T05:20:51.753Z,1014.3
2018-03-29T05:21:51.742Z,1014.28
2018-03-29T05:22:51.730Z,1014.22
2018-03-29T05:23:51.719Z,1014.26
2018-03-29T05:24:51.708Z,1014.33
2018-03-29T05:25:51.696Z,1014.41
2018-03-29T05:26:51.684Z,1014.36
2018-03-29T05:27:51.673Z,1014.45
2018-03-29T05:28:51.661Z,1014.4
2018-03-29T05:29:51.665Z,1014.4
2018-03-29T05:30:51.638Z,1014.47
2018-03-29T05:31:51.626Z,1014.75
2018-03-29T05:32:51.615Z,1014.57
2018-03-29T05:33:51.603Z,1014.61
2018-03-29T05:34:51.593Z,1014.65
2018-03-29T05:35:51.580Z,1014.65
2018-03-29T05:36:51.568Z,1014.58
2018-03-29T05:37:51.558Z,1014.67
2018-03-29T05:38:51.546Z,1014.65
2018-03-29T05:39:51.534Z,1014.67
2018-03-29T05:40:51.572Z,1014.65
2018-03-29T05:41:51.511Z,1014.71
2018-03-29T05:42:51.510Z,1014.7
2018-03-29T05:43:51.488Z,1014.68
2018-03-29T05:44:51.476Z,1014.67
2018-03-29T05:45:51.466Z,1014.7
2018-03-29T05:46:51.511Z,1014.69
2018-03-29T05:47:51.441Z,1014.73
2018-03-29T05:48:51.430Z,1014.8
2018-03-29T05:49:51.419Z,1014.84
2018-03-29T05:50:51.406Z,1014.88
2018-03-29T05:51:51.400Z,1014.86
2018-03-29T05:52:51.384Z,1014.85
2018-03-29T05:53:51.372Z,1014.91
2018-03-29T05:54:51.360Z,1014.91
2018-03-29T05:55:51.348Z,1014.93
2018-03-29T05:56:51.337Z,1014.88
2018-03-29T05:57:51.326Z,1014.86
2018-03-29T05:58:51.320Z,1014.88
2018-03-29T05:59:51.304Z,1014.91
2018-03-29T06:00:51.291Z,1014.88
2018-03-29T06:01:51.283Z,1014.84
2018-03-29T06:02:51.268Z,1014.86
2018-03-29T06:03:51.257Z,1014.91
2018-03-29T06:04:51.245Z,1014.93
2018-03-29T06:05:51.233Z,1014.92
2018-03-29T06:06:51.223Z,1014.84
2018-03-29T06:07:51.211Z,1014.8
2018-03-29T06:08:51.201Z,1014.8
2018-03-29T06:09:51.188Z,1014.74
2018-03-29T06:10:51.176Z,1014.72
2018-03-29T06:11:51.166Z,1014.71
2018-03-29T06:12:51.153Z,1014.75
2018-03-29T06:13:51.142Z,1014.76
2018-03-29T06:14:51.131Z,1014.71
2018-03-29T06:15:51.119Z,1014.7
2018-03-29T06:16:51.110Z,1014.68
2018-03-29T06:17:51.157Z,1014.67
2018-03-29T06:18:51.086Z,1014.68
2018-03-29T06:19:51.116Z,1014.63
2018-03-29T06:20:51.064Z,1014.59
2018-03-29T06:21:51.052Z,1014.54
2018-03-29T06:22:51.042Z,1014.55
2018-03-29T06:23:51.030Z,1014.59
2018-03-29T06:24:51.019Z,1014.51
2018-03-29T06:25:51.008Z,1014.5
2018-03-29T06:26:51.001Z,1014.55
2018-03-29T06:27:50.994Z,1014.53
2018-03-29T06:28:50.975Z,1014.53
2018-03-29T06:29:50.964Z,1014.52
2018-03-29T06:30:50.952Z,1014.5
2018-03-29T06:31:50.941Z,1014.5
2018-03-29T06:32:50.930Z,1014.5
2018-03-29T06:33:50.920Z,1014.49
2018-03-29T06:34:50.908Z,1014.51
2018-03-29T06:35:50.901Z,1014.53
2018-03-29T06:36:50.888Z,1014.56
2018-03-29T06:37:50.877Z,1014.54
2018-03-29T06:38:50.866Z,1014.55
2018-03-29T06:39:50.860Z,1014.61
2018-03-29T06:40:50.844Z,1014.58
2018-03-29T06:41:50.834Z,1014.6
2018-03-29T06:42:50.823Z,1014.63
2018-03-29T06:43:50.812Z,1014.54
2018-03-29T06:44:50.803Z,1014.53
2018-03-29T06:45:50.794Z,1014.52
2018-03-29T06:46:50.783Z,1014.53
2018-03-29T06:47:50.774Z,1014.45
2018-03-29T06:48:50.760Z,1014.53
2018-03-29T06:49:50.750Z,1014.53
2018-03-29T06:50:50.739Z,1014.56
2018-03-29T06:51:50.729Z,1014.6
2018-03-29T06:52:50.721Z,1014.6
2018-03-29T06:53:50.708Z,1014.6
2018-03-29T06:54:50.704Z,1014.56
2018-03-29T06:55:50.686Z,1014.68
2018-03-29T06:56:50.678Z,1014.76
2018-03-29T06:57:50.669Z,1014.79
2018-03-29T06:58:50.658Z,1014.76
2018-03-29T06:59:50.645Z,1014.84
2018-03-29T07:00:50.655Z,1014.9
2018-03-29T07:01:50.629Z,1014.92
2018-03-29T07:02:50.615Z,1014.91
2018-03-29T07:03:50.609Z,1014.92
2018-03-29T07:04:50.594Z,1014.93
2018-03-29T07:05:50.583Z,1014.91
2018-03-29T07:06:50.573Z,1014.94
2018-03-29T07:07:50.565Z,1014.93
2018-03-29T07:08:50.552Z,1014.93
2018-03-29T07:09:50.542Z,1014.84
2018-03-29T07:10:50.531Z,1014.87
2018-03-29T07:11:50.522Z,1014.87
2018-03-29T07:12:50.513Z,1014.84
2018-03-29T07:13:50.501Z,1014.9
2018-03-29T07:14:50.490Z,1014.84
2018-03-29T07:15:50.480Z,1014.84
2018-03-29T07:16:50.471Z,1014.87
2018-03-29T07:17:50.467Z,1014.87
2018-03-29T07:18:50.449Z,1014.94
2018-03-29T07:19:50.440Z,1014.99
2018-03-29T07:20:50.430Z,1014.99
2018-03-29T07:21:50.429Z,1014.96
2018-03-29T07:22:50.416Z,1014.99
2018-03-29T07:23:50.398Z,1014.92
2018-03-29T07:24:50.389Z,1014.99
2018-03-29T07:25:50.378Z,1014.96
2018-03-29T07:26:50.371Z,1015
2018-03-29T07:27:50.361Z,1015
2018-03-29T07:28:50.354Z,1014.98
2018-03-29T07:29:50.343Z,1014.98
2018-03-29T07:30:50.328Z,1015.01
2018-03-29T07:31:50.320Z,1015.04
2018-03-29T07:32:50.312Z,1015.04
2018-03-29T07:33:50.314Z,1015.08
2018-03-29T07:34:50.289Z,1015.05
2018-03-29T07:35:50.278Z,1015.03
2018-03-29T07:36:50.267Z,1015.06
2018-03-29T07:37:50.273Z,1015.06
2018-03-29T07:38:50.255Z,1014.95
2018-03-29T07:39:50.237Z,1014.99
2018-03-29T07:40:50.228Z,1014.99
2018-03-29T07:41:50.220Z,1015
2018-03-29T07:42:50.210Z,1014.99
2018-03-29T07:43:50.199Z,1015.04
2018-03-29T07:44:50.188Z,1014.94
2018-03-29T07:45:50.182Z,1014.96
2018-03-29T07:46:50.169Z,1014.98
2018-03-29T07:47:50.158Z,1015.01
2018-03-29T07:48:50.149Z,1014.91
2018-03-29T07:49:50.140Z,1014.9
2018-03-29T07:50:50.132Z,1014.9
2018-03-29T07:51:50.132Z,1014.9
2018-03-29T07:52:50.116Z,1014.91
2018-03-29T07:53:50.100Z,1014.89
2018-03-29T07:54:50.106Z,1014.92
2018-03-29T07:55:50.095Z,1014.9
2018-03-29T07:56:50.071Z,1014.91
2018-03-29T07:57:50.125Z,1014.89
2018-03-29T07:58:50.055Z,1014.86
2018-03-29T07:59:50.050Z,1014.89
2018-03-29T08:00:50.039Z,1014.87
2018-03-29T08:01:50.023Z,1014.91
2018-03-29T08:02:50.013Z,1014.89
2018-03-29T08:03:50.005Z,1014.94
2018-03-29T08:04:49.995Z,1014.84
2018-03-29T08:05:49.987Z,1014.79
2018-03-29T08:06:49.976Z,1014.72
2018-03-29T08:07:49.967Z,1014.77
2018-03-29T08:08:49.961Z,1014.75
2018-03-29T08:09:49.957Z,1014.7
2018-03-29T08:10:49.948Z,1014.71
2018-03-29T08:11:49.929Z,1014.64
2018-03-29T08:12:49.920Z,1014.66
2018-03-29T08:13:49.971Z,1014.63
2018-03-29T08:14:49.902Z,1014.53
2018-03-29T08:15:49.892Z,1014.46
2018-03-29T08:16:49.883Z,1014.4
2018-03-29T08:17:49.875Z,1014.33
2018-03-29T08:18:49.895Z,1014.38
2018-03-29T08:19:49.857Z,1014.36
2018-03-29T08:20:49.849Z,1014.45
2018-03-29T08:21:49.889Z,1014.4
2018-03-29T08:22:49.831Z,1014.41
2018-03-29T08:23:49.824Z,1014.49
2018-03-29T08:24:49.816Z,1014.47
2018-03-29T08:25:49.803Z,1014.53
2018-03-29T08:26:49.794Z,1014.59
2018-03-29T08:27:49.786Z,1014.56
2018-03-29T08:28:49.782Z,1014.63
2018-03-29T08:29:49.775Z,1014.65
2018-03-29T08:30:49.759Z,1014.61
2018-03-29T08:31:49.758Z,1014.65
2018-03-29T08:32:49.745Z,1014.76
2018-03-29T08:33:49.734Z,1014.77
2018-03-29T08:34:49.737Z,1014.77
2018-03-29T08:35:49.717Z,1014.81
2018-03-29T08:36:49.708Z,1014.72
2018-03-29T08:37:49.699Z,1014.72
2018-03-29T08:38:49.692Z,1014.69
2018-03-29T08:39:49.682Z,1014.69
2018-03-29T08:40:49.682Z,1014.7
2018-03-29T08:41:49.673Z,1014.69
2018-03-29T08:42:49.710Z,1014.67
2018-03-29T08:43:49.648Z,1014.66
2018-03-29T08:44:49.653Z,1014.63
2018-03-29T08:45:49.651Z,1014.72
2018-03-29T08:46:49.626Z,1014.65
2018-03-29T08:47:49.614Z,1014.55
2018-03-29T08:48:49.607Z,1014.51
2018-03-29T08:49:49.609Z,1014.52
2018-03-29T08:50:49.590Z,1014.51
2018-03-29T08:51:49.583Z,1014.48
2018-03-29T08:52:49.570Z,1014.38
2018-03-29T08:53:49.561Z,1014.33
2018-03-29T08:54:49.553Z,1014.29
2018-03-29T08:55:49.550Z,1014.38
2018-03-29T08:56:49.538Z,1014.46
2018-03-29T08:57:49.528Z,1014.51
2018-03-29T08:58:49.520Z,1014.52
2018-03-29T08:59:49.512Z,1014.61
2018-03-29T09:00:49.504Z,1014.68
2018-03-29T09:01:49.495Z,1014.7
2018-03-29T09:02:49.487Z,1014.78
2018-03-29T09:03:49.478Z,1014.7
2018-03-29T09:04:49.472Z,1014.7
2018-03-29T09:05:49.468Z,1014.66
2018-03-29T09:06:49.455Z,1014.67
2018-03-29T09:07:49.446Z,1014.74
2018-03-29T09:08:49.439Z,1014.7
2018-03-29T09:09:49.430Z,1014.88
2018-03-29T09:10:49.427Z,1014.92
2018-03-29T09:11:49.413Z,1014.92
2018-03-29T09:12:49.406Z,1014.94
2018-03-29T09:13:49.398Z,1014.88
2018-03-29T09:14:49.390Z,1014.86
2018-03-29T09:15:49.383Z,1014.79
2018-03-29T09:16:49.372Z,1014.84
2018-03-29T09:17:49.368Z,1014.9
2018-03-29T09:18:49.356Z,1014.8
2018-03-29T09:19:49.348Z,1014.73
2018-03-29T09:20:49.340Z,1014.63
2018-03-29T09:21:49.331Z,1014.49
2018-03-29T09:22:49.323Z,1014.44
2018-03-29T09:23:49.315Z,1014.46
2018-03-29T09:24:49.307Z,1014.35
2018-03-29T09:25:49.299Z,1014.25
2018-03-29T09:26:49.291Z,1014.09
2018-03-29T09:27:49.284Z,1014.05
2018-03-29T09:28:49.282Z,1013.95
2018-03-29T09:29:49.267Z,1013.85
2018-03-29T09:30:49.260Z,1013.76
2018-03-29T09:31:49.261Z,1013.56
2018-03-29T09:32:49.264Z,1013.35
2018-03-29T09:33:49.239Z,1013.31
2018-03-29T09:34:49.231Z,1013.4
2018-03-29T09:35:49.234Z,1013.41
2018-03-29T09:36:49.220Z,1013.48
2018-03-29T09:37:49.215Z,1013.53
2018-03-29T09:38:49.203Z,1013.66
2018-03-29T09:39:49.196Z,1013.84
2018-03-29T09:40:49.188Z,1013.99
2018-03-29T09:41:49.182Z,1014.13
2018-03-29T09:42:49.189Z,1014.21
2018-03-29T09:43:49.172Z,1014.28
2018-03-29T09:44:49.161Z,1014.22
2018-03-29T09:45:49.156Z,1014.2
2018-03-29T09:46:49.148Z,1014.11
2018-03-29T09:47:49.143Z,1014.01
2018-03-29T09:48:49.133Z,1013.99
2018-03-29T09:49:49.135Z,1014.05
2018-03-29T09:50:49.145Z,1014.19
2018-03-29T09:51:49.115Z,1014.22
2018-03-29T09:52:49.106Z,1014.18
2018-03-29T09:53:49.100Z,1014.12
2018-03-29T09:54:49.093Z,1014.01
2018-03-29T09:55:49.091Z,1014.21
2018-03-29T09:56:49.091Z,1014.19
2018-03-29T09:57:49.073Z,1014.21
2018-03-29T09:58:49.066Z,1014.25
2018-03-29T09:59:49.064Z,1014.27
2018-03-29T10:00:49.052Z,1014.4
2018-03-29T10:01:49.047Z,1014.48
2018-03-29T10:02:49.044Z,1014.52
2018-03-29T10:03:49.033Z,1014.43
2018-03-29T10:04:49.027Z,1014.29
2018-03-29T10:05:49.020Z,1014.05
2018-03-29T10:06:49.016Z,1014.06
2018-03-29T10:07:49.004Z,1014.05
2018-03-29T10:08:48.998Z,1013.95
2018-03-29T10:09:48.990Z,1014.07
2018-03-29T10:10:48.985Z,1014.08
2018-03-29T10:11:48.979Z,1014.07
2018-03-29T10:12:48.979Z,1014.09
2018-03-29T10:13:48.965Z,1014.16
2018-03-29T10:14:48.957Z,1014.2
2018-03-29T10:15:48.951Z,1014.14
2018-03-29T10:16:48.947Z,1014.11
2018-03-29T10:17:48.937Z,1014.05
2018-03-29T10:18:48.952Z,1013.9
2018-03-29T10:19:48.926Z,1013.8
2018-03-29T10:20:48.917Z,1013.69
2018-03-29T10:21:48.911Z,1013.76
2018-03-29T10:22:48.922Z,1013.73
2018-03-29T10:23:48.899Z,1013.79
2018-03-29T10:24:48.906Z,1013.92
2018-03-29T10:25:48.890Z,1013.99
2018-03-29T10:26:48.879Z,1013.92
2018-03-29T10:27:48.872Z,1013.87
2018-03-29T10:28:48.866Z,1013.74
2018-03-29T10:29:48.861Z,1013.69
2018-03-29T10:30:48.854Z,1013.6
2018-03-29T10:31:48.848Z,1013.56
2018-03-29T10:32:48.849Z,1013.52
2018-03-29T10:33:48.840Z,1013.48
2018-03-29T10:34:48.836Z,1013.5
2018-03-29T10:35:48.827Z,1013.61
2018-03-29T10:36:48.818Z,1013.57
2018-03-29T10:37:48.812Z,1013.56
2018-03-29T10:38:48.807Z,1013.56
2018-03-29T10:39:48.805Z,1013.67
2018-03-29T10:40:48.795Z,1013.67
2018-03-29T10:41:48.789Z,1013.61
2018-03-29T10:42:48.783Z,1013.69
2018-03-29T10:43:48.783Z,1013.78
2018-03-29T10:44:48.777Z,1013.81
2018-03-29T10:45:48.776Z,1013.9
2018-03-29T10:46:48.759Z,1014.04
2018-03-29T10:47:48.754Z,1014.09
2018-03-29T10:48:48.749Z,1014.18
2018-03-29T10:49:48.742Z,1014.34
2018-03-29T10:50:48.735Z,1014.35
2018-03-29T10:51:48.730Z,1014.42
2018-03-29T10:52:48.726Z,1014.46
2018-03-29T10:53:48.717Z,1014.55
2018-03-29T10:54:48.715Z,1014.66
2018-03-29T10:55:48.706Z,1014.73
2018-03-29T10:56:48.700Z,1014.89
2018-03-29T10:57:48.697Z,1014.94
2018-03-29T10:58:48.687Z,1015.09
2018-03-29T10:59:48.680Z,1015.14
2018-03-29T11:00:48.680Z,1015.19
2018-03-29T11:01:48.668Z,1015.31
2018-03-29T11:02:48.660Z,1015.34
2018-03-29T11:03:48.655Z,1015.48
2018-03-29T11:04:48.647Z,1015.43
2018-03-29T11:05:48.640Z,1015.53
2018-03-29T11:06:48.634Z,1015.48
2018-03-29T11:07:48.630Z,1015.49
2018-03-29T11:08:48.619Z,1015.5
2018-03-29T11:09:48.613Z,1015.55
2018-03-29T11:10:48.610Z,1015.51
2018-03-29T11:11:48.601Z,1015.51
2018-03-29T11:12:48.599Z,1015.53
2018-03-29T11:13:48.591Z,1015.49
2018-03-29T11:14:48.578Z,1015.55
2018-03-29T11:15:48.571Z,1015.53
2018-03-29T11:16:48.563Z,1015.5
2018-03-29T11:17:48.578Z,1015.47
2018-03-29T11:18:48.553Z,1015.37
2018-03-29T11:19:48.542Z,1015.25
2018-03-29T11:20:48.534Z,1015.05
2018-03-29T11:21:48.528Z,1014.98
2018-03-29T11:22:48.526Z,1014.85
2018-03-29T11:23:48.514Z,1014.71
2018-03-29T11:24:48.506Z,1014.56
2018-03-29T11:25:48.500Z,1014.49
2018-03-29T11:26:48.495Z,1014.33
2018-03-29T11:27:48.486Z,1014.24
2018-03-29T11:28:48.479Z,1014.26
2018-03-29T11:29:48.484Z,1014.21
2018-03-29T11:30:48.479Z,1014.14
2018-03-29T11:31:48.461Z,1014.06
2018-03-29T11:32:48.463Z,1014.05
2018-03-29T11:33:48.448Z,1013.87
2018-03-29T11:34:48.447Z,1013.86
2018-03-29T11:35:48.438Z,1013.83
2018-03-29T11:36:48.474Z,1013.86
2018-03-29T11:37:48.423Z,1013.73
2018-03-29T11:38:48.450Z,1013.7
2018-03-29T11:39:48.414Z,1013.64
2018-03-29T11:40:48.411Z,1013.75
2018-03-29T11:41:48.400Z,1013.63
2018-03-29T11:42:48.398Z,1013.64
2018-03-29T11:43:48.390Z,1013.65
2018-03-29T11:44:48.384Z,1013.68
2018-03-29T11:45:48.389Z,1013.75
2018-03-29T11:46:48.376Z,1013.7
2018-03-29T11:47:48.369Z,1013.55
2018-03-29T11:48:48.363Z,1013.46
2018-03-29T11:49:48.358Z,1013.38
2018-03-29T11:50:48.358Z,1013.31
2018-03-29T11:51:48.363Z,1013.2
2018-03-29T11:52:48.354Z,1013.24
2018-03-29T11:53:48.342Z,1013.16
2018-03-29T11:54:48.332Z,1013.02
2018-03-29T11:55:48.328Z,1013.2
2018-03-29T11:56:48.322Z,1013.26
2018-03-29T11:57:48.318Z,1013.38
2018-03-29T11:58:48.314Z,1013.32
2018-03-29T11:59:48.309Z,1013.32
2018-03-29T12:00:48.304Z,1013.44
2018-03-29T12:01:48.299Z,1013.51
2018-03-29T12:02:48.295Z,1013.67
2018-03-29T12:03:48.290Z,1013.66
2018-03-29T12:04:48.286Z,1013.64
2018-03-29T12:05:48.291Z,1013.64
2018-03-29T12:06:48.526Z,1013.67
2018-03-29T12:07:48.285Z,1013.67
2018-03-29T12:08:48.271Z,1013.74
2018-03-29T12:09:48.263Z,1013.95